Time;durP1;ratioP1;P1;durP2;ratioP2;P2;SDS_P1;SDS_P2;PMS_P1;PMS_P2;Temp;Humidity;BMP_temperature;BMP_pressure;BME280_temperature;BME280_humidity;BME280_pressure;Samples;Min_cycle;Max_cycle;Signal;HPM_P1;HPM_P2
2022/01/28 00:02:47;;;;;;;;;;;;;;;4.27;90.79;102999.47;5058886;28;20075;-81
2022/01/28 00:05:18;;;;;;;;;;;;;;;4.26;90.63;103009.84;5067932;28;19931;-79
2022/01/28 00:07:44;;;;;;;;;;;;;;;4.37;90.39;102994.38;5068791;28;20000;-80
2022/01/28 00:10:10;;;;;;;;;;;;;;;4.45;89.52;102980.63;5065640;28;20008;-80
2022/01/28 00:12:42;;;;;;;;;;;;;;;4.48;89.32;102980.69;5070683;28;19920;-81
2022/01/28 00:15:18;;;;;;;;;;;;;;;4.48;88.85;102990.19;5067857;28;19917;-79
2022/01/28 00:38:57;;;;;;;;;;;;;;;4.56;86.24;103009.44;5064916;28;20019;-72
2022/01/28 00:41:22;;;;;;;;;;;;;;;4.49;86.49;103028.41;5064107;28;19921;-72
2022/01/28 00:43:47;;;;;;;;;;;;;;;4.58;86.75;103028.53;5067782;28;19929;-73
2022/01/28 00:46:12;;;;;;;;;;;;;;;4.57;87.10;103034.59;5070073;28;19925;-73
2022/01/28 00:48:38;;;;;;;;;;;;;;;4.60;86.42;103029.41;5075970;28;19921;-81
2022/01/28 00:51:03;;;;;;;;;;;;;;;4.64;87.04;103027.72;5069695;28;19921;-73
2022/01/28 00:53:29;;;;;;;;;;;;;;;4.58;87.20;103053.69;5073638;28;19925;-72
2022/01/28 00:55:54;;;;;;;;;;;;;;;4.56;87.47;103055.41;5073377;28;19917;-78
2022/01/28 00:58:20;;;;;;;;;;;;;;;4.51;88.48;103057.94;5071730;28;19935;-73
2022/01/28 01:00:45;;;;;;;;;;;;;;;4.50;88.99;103056.19;5073043;28;20517;-71
2022/01/28 01:03:10;;;;;;;;;;;;;;;4.59;88.52;103045.91;5070531;28;19924;-73
2022/01/28 01:05:36;;;;;;;;;;;;;;;4.54;88.23;103046.69;5072110;28;20015;-72
2022/01/28 01:08:01;;;;;;;;;;;;;;;4.61;87.64;103045.94;5069121;28;19920;-78
2022/01/28 01:10:27;;;;;;;;;;;;;;;4.61;86.99;103044.19;5072091;28;19923;-72
2022/01/28 01:12:53;;;;;;;;;;;;;;;4.62;86.12;103037.28;5070242;28;19973;-73
2022/01/28 01:15:22;;;;;;;;;;;;;;;4.49;86.75;103038.81;5068470;28;19924;-73
2022/01/28 01:25:44;;;;;;;;;;;;;;;4.69;85.40;103061.63;5070566;28;20718;-74
2022/01/28 01:28:30;;;;;;;;;;;;;;;4.61;86.49;103061.56;5071438;28;19940;-74
2022/01/28 01:30:57;;;;;;;;;;;;;;;4.59;87.62;103077.13;5062561;28;19924;-74
2022/01/28 01:33:23;;;;;;;;;;;;;;;4.58;88.81;103093.59;5071344;28;20004;-77
2022/01/28 01:35:48;;;;;;;;;;;;;;;4.55;89.22;103093.59;5072620;28;20417;-72
2022/01/28 01:38:13;;;;;;;;;;;;;;;4.54;89.87;103099.63;5070312;28;19917;-72
2022/01/28 01:40:46;;;;;;;;;;;;;;;4.49;90.33;103109.09;5069082;28;19923;-72
2022/01/28 01:53:58;;;;;;;;;;;;;;;4.46;92.92;103130.75;5071495;28;19923;-74
2022/01/28 01:56:24;;;;;;;;;;;;;;;4.51;92.73;103135.16;5067166;28;19924;-73
2022/01/28 01:58:49;;;;;;;;;;;;;;;4.47;93.08;103142.03;5068900;28;19916;-78
2022/01/28 02:01:14;;;;;;;;;;;;;;;4.40;92.96;103148.88;5069446;28;19916;-74
2022/01/28 02:03:39;;;;;;;;;;;;;;;4.45;93.38;103152.41;5089622;28;20110;-74
2022/01/28 02:06:05;;;;;;;;;;;;;;;4.42;93.22;103156.72;5086556;28;19923;-74
2022/01/28 02:08:31;;;;;;;;;;;;;;;4.42;92.73;103151.50;5084986;28;20402;-73
2022/01/28 02:10:59;;;;;;;;;;;;;;;4.40;92.15;103146.28;5086021;28;20405;-72
2022/01/28 02:13:25;;;;;;;;;;;;;;;4.35;92.28;103147.91;5086355;28;19920;-73
2022/01/28 02:15:50;;;;;;;;;;;;;;;4.37;91.09;103142.72;5087433;28;20007;-72
2022/01/28 02:18:16;;;;;;;;;;;;;;;4.42;89.58;103136.75;5086144;28;20031;-73
2022/01/28 02:20:43;;;;;;;;;;;;;;;4.39;89.48;103131.50;5086939;28;19951;-77
2022/01/28 02:23:09;;;;;;;;;;;;;;;4.38;89.20;103127.16;5086895;28;19937;-73
2022/01/28 02:25:34;;;;;;;;;;;;;;;4.35;89.34;103134.03;5088777;28;20011;-73
2022/01/28 02:28:02;;;;;;;;;;;;;;;4.29;89.03;103138.28;5088009;28;19956;-78
2022/01/28 02:30:28;;;;;;;;;;;;;;;4.38;88.20;103134.97;5089538;28;19916;-79
2022/01/28 02:33:00;;;;;;;;;;;;;;;4.34;87.89;103133.16;5088874;28;19924;-73
2022/01/28 02:35:26;;;;;;;;;;;;;;;4.38;87.65;103129.75;5086686;28;19934;-80
2022/01/28 02:37:51;;;;;;;;;;;;;;;4.30;87.81;103132.22;5072943;28;19916;-80
2022/01/28 02:40:17;;;;;;;;;;;;;;;4.30;87.89;103137.44;5084036;28;19963;-74
2022/01/28 02:45:27;;;;;;;;;;;;;;;4.22;88.43;103154.66;5069358;28;19932;-78
2022/01/28 02:47:58;;;;;;;;;;;;;;;4.29;87.81;103153.03;5085563;28;19920;-71
2022/01/28 02:50:26;;;;;;;;;;;;;;;4.26;87.98;103150.38;5084225;28;20226;-72
2022/01/28 02:53:02;;;;;;;;;;;;;;;4.25;88.39;103133.88;5086568;28;20003;-71
2022/01/28 02:55:30;;;;;;;;;;;;;;;4.22;88.40;103148.56;5086466;28;19916;-77
2022/01/28 02:58:13;;;;;;;;;;;;;;;4.12;88.58;103169.22;5087268;28;20426;-78
2022/01/28 03:00:40;;;;;;;;;;;;;;;4.16;88.71;103170.13;5082976;28;19924;-76
2022/01/28 03:03:05;;;;;;;;;;;;;;;4.13;88.59;103173.56;5086632;28;19935;-73
2022/01/28 03:05:32;;;;;;;;;;;;;;;4.00;89.74;103177.69;5088522;28;19920;-72
2022/01/28 03:08:00;;;;;;;;;;;;;;;3.96;89.58;103182.81;5104837;28;20351;-82
2022/01/28 03:10:30;;;;;;;;;;;;;;;3.83;90.47;103187.75;5110702;28;19922;-80
2022/01/28 03:15:38;;;;;;;;;;;;;;;3.93;90.51;103190.53;5090198;28;19922;-79
2022/01/28 03:23:25;;;;;;;;;;;;;;;3.81;92.05;103192.06;5086944;28;19977;-72
2022/01/28 03:25:50;;;;;;;;;;;;;;;3.81;91.75;103189.44;5087120;28;19919;-78
2022/01/28 03:28:19;;;;;;;;;;;;;;;3.73;91.89;103193.63;5079601;28;19920;-73
2022/01/28 03:30:44;;;;;;;;;;;;;;;3.71;92.07;103190.13;5100936;28;19916;-78
2022/01/28 03:33:09;;;;;;;;;;;;;;;3.73;92.59;103191.03;5089160;28;20007;-80
2022/01/28 03:35:35;;;;;;;;;;;;;;;3.67;92.42;103202.19;5090141;28;19923;-71
2022/01/28 03:38:03;;;;;;;;;;;;;;;3.65;92.96;103210.78;5067206;28;19928;-77
2022/01/28 03:43:10;;;;;;;;;;;;;;;3.74;93.14;103207.50;5085816;28;19930;-73
2022/01/28 03:45:36;;;;;;;;;;;;;;;3.74;93.15;103200.59;5086565;28;20006;-72
2022/01/28 03:48:01;;;;;;;;;;;;;;;3.68;93.19;103197.84;5085867;28;19989;-72
2022/01/28 03:50:27;;;;;;;;;;;;;;;3.75;93.57;103199.72;5088731;28;19972;-71
2022/01/28 03:52:52;;;;;;;;;;;;;;;3.86;92.97;103194.75;5086342;28;20343;-72
2022/01/28 03:55:17;;;;;;;;;;;;;;;3.82;92.71;103193.81;5086234;28;19923;-72
2022/01/28 03:57:43;;;;;;;;;;;;;;;3.85;92.68;103195.59;5086953;28;20050;-72
2022/01/28 04:00:08;;;;;;;;;;;;;;;3.95;91.81;103199.25;5085614;28;19927;-73
2022/01/28 04:02:37;;;;;;;;;;;;;;;4.00;91.61;103206.28;5088634;28;20380;-73
2022/01/28 04:13:06;;;;;;;;;;;;;;;4.28;90.23;103219.78;5087313;28;19920;-72
2022/01/28 04:18:12;;;;;;;;;;;;;;;4.30;89.26;103225.06;5087296;28;20010;-73
2022/01/28 04:20:37;;;;;;;;;;;;;;;4.27;90.01;103227.59;5087739;28;20345;-82
2022/01/28 04:23:02;;;;;;;;;;;;;;;4.23;89.71;103226.66;5089064;28;19920;-80
2022/01/28 04:25:28;;;;;;;;;;;;;;;4.20;89.79;103233.50;5088834;28;20358;-72
2022/01/28 04:27:53;;;;;;;;;;;;;;;4.25;90.42;103229.28;5086994;28;19916;-71
2022/01/28 04:30:18;;;;;;;;;;;;;;;4.23;90.44;103233.56;5085328;28;19931;-73
2022/01/28 04:32:46;;;;;;;;;;;;;;;4.24;90.44;103233.63;5088761;28;19948;-72
2022/01/28 04:35:12;;;;;;;;;;;;;;;4.31;90.64;103231.97;5085412;28;19920;-73
2022/01/28 04:45:48;;;;;;;;;;;;;;;4.04;91.94;103254.03;5085109;28;19932;-72
2022/01/28 05:11:27;;;;;;;;;;;;;;;3.64;94.37;103287.91;5086839;28;19920;-80
2022/01/28 05:16:51;;;;;;;;;;;;;;;3.66;93.79;103281.00;5088607;28;20025;-81
2022/01/28 05:27:18;;;;;;;;;;;;;;;3.95;94.09;103295.47;5085526;28;19924;-80
2022/01/28 05:29:43;;;;;;;;;;;;;;;3.96;93.93;103294.63;5087385;28;19924;-80
2022/01/28 05:32:09;;;;;;;;;;;;;;;4.04;93.11;103287.88;5088745;28;19971;-80
2022/01/28 05:34:35;;;;;;;;;;;;;;;4.06;93.56;103293.09;5087306;28;19916;-78
2022/01/28 05:37:00;;;;;;;;;;;;;;;4.09;93.38;103294.03;5079489;28;20345;-78
2022/01/28 05:39:25;;;;;;;;;;;;;;;4.07;93.48;103287.94;5089433;28;20484;-79
2022/01/28 05:41:51;;;;;;;;;;;;;;;4.03;93.14;103297.38;5088263;28;19927;-80
2022/01/28 05:44:18;;;;;;;;;;;;;;;3.94;93.47;103293.72;5088650;28;19928;-80
2022/01/28 05:46:44;;;;;;;;;;;;;;;3.89;93.37;103309.22;5091574;28;20415;-78
2022/01/28 05:49:10;;;;;;;;;;;;;;;3.89;93.49;103305.75;5089386;28;20367;-78
2022/01/28 05:51:35;;;;;;;;;;;;;;;3.85;94.23;103299.59;5092045;28;19920;-80
2022/01/28 05:54:00;;;;;;;;;;;;;;;3.82;93.80;103307.31;5090523;28;19943;-75
2022/01/28 05:56:26;;;;;;;;;;;;;;;3.87;94.11;103314.38;5093221;28;19959;-79
2022/01/28 05:58:52;;;;;;;;;;;;;;;3.95;93.67;103314.56;5088756;28;19916;-78
2022/01/28 06:01:17;;;;;;;;;;;;;;;4.02;93.21;103318.16;5094138;28;19924;-79
2022/01/28 06:03:44;;;;;;;;;;;;;;;4.06;92.74;103324.31;5096523;28;20296;-78
2022/01/28 06:06:13;;;;;;;;;;;;;;;4.13;92.23;103334.00;5088299;28;19931;-74
2022/01/28 06:08:38;;;;;;;;;;;;;;;4.16;92.16;103327.13;5093916;28;19923;-74
2022/01/28 06:11:03;;;;;;;;;;;;;;;4.18;92.00;103325.44;5081140;28;20261;-74
2022/01/28 06:13:29;;;;;;;;;;;;;;;4.17;92.37;103328.91;5088717;28;19950;-73
2022/01/28 06:15:56;;;;;;;;;;;;;;;4.15;92.29;103329.69;5090798;28;19916;-73
2022/01/28 06:18:21;;;;;;;;;;;;;;;4.18;92.08;103335.84;5096148;28;20340;-74
2022/01/28 06:20:46;;;;;;;;;;;;;;;4.16;91.23;103334.94;5110243;28;19970;-72
2022/01/28 06:23:12;;;;;;;;;;;;;;;4.06;91.67;103343.41;5106279;27;19931;-78
2022/01/28 06:25:39;;;;;;;;;;;;;;;4.06;92.32;103369.41;5098893;27;19947;-78
2022/01/28 06:28:04;;;;;;;;;;;;;;;3.98;91.83;103364.03;5098692;27;19965;-79
2022/01/28 06:30:30;;;;;;;;;;;;;;;3.93;92.48;103364.78;5091849;28;19916;-79
2022/01/28 06:32:55;;;;;;;;;;;;;;;3.89;92.40;103374.25;5091754;28;20268;-79
2022/01/28 06:35:20;;;;;;;;;;;;;;;3.91;92.40;103377.78;5098344;27;19923;-79
2022/01/28 06:37:46;;;;;;;;;;;;;;;3.93;92.53;103383.84;5085134;28;20589;-79
2022/01/28 06:40:12;;;;;;;;;;;;;;;3.95;92.64;103395.19;5092090;28;19920;-79
2022/01/28 06:42:38;;;;;;;;;;;;;;;3.89;92.51;103384.66;5091753;28;19966;-79
2022/01/28 06:45:04;;;;;;;;;;;;;;;3.85;93.04;103383.72;5088168;28;19925;-78
2022/01/28 06:47:29;;;;;;;;;;;;;;;3.85;92.57;103388.03;5085807;28;19924;-80
2022/01/28 06:49:54;;;;;;;;;;;;;;;3.80;93.02;103385.31;5086555;28;19926;-77
2022/01/28 06:52:20;;;;;;;;;;;;;;;3.83;93.32;103382.78;5086294;28;19960;-77
2022/01/28 06:54:45;;;;;;;;;;;;;;;3.78;92.70;103375.72;5089328;28;19920;-73
2022/01/28 06:57:10;;;;;;;;;;;;;;;3.78;92.74;103379.19;5085804;28;19969;-75
2022/01/28 06:59:36;;;;;;;;;;;;;;;3.68;92.28;103372.03;5086673;28;19955;-76
2022/01/28 07:02:01;;;;;;;;;;;;;;;3.60;92.63;103386.56;5086680;28;19978;-76
2022/01/28 07:04:26;;;;;;;;;;;;;;;3.52;92.74;103381.19;5088039;28;19947;-78
2022/01/28 07:06:52;;;;;;;;;;;;;;;3.49;93.29;103392.41;5088394;28;19969;-80
2022/01/28 07:09:17;;;;;;;;;;;;;;;3.42;93.64;103398.25;5086448;28;19916;-79
2022/01/28 07:11:43;;;;;;;;;;;;;;;3.31;94.13;103394.56;5085830;28;19916;-77
2022/01/28 07:14:08;;;;;;;;;;;;;;;3.24;94.44;103403.91;5086466;28;19920;-79
2022/01/28 07:16:35;;;;;;;;;;;;;;;3.11;94.87;103405.28;5093232;28;19924;-73
2022/01/28 07:19:01;;;;;;;;;;;;;;;3.01;94.91;103406.78;5086886;28;19985;-73
2022/01/28 07:21:26;;;;;;;;;;;;;;;2.96;95.67;103415.28;5085794;28;19920;-73
2022/01/28 07:23:51;;;;;;;;;;;;;;;2.92;95.97;103414.34;5086281;28;19964;-71
2022/01/28 07:26:16;;;;;;;;;;;;;;;2.86;96.24;103421.94;5085351;28;20001;-71
2022/01/28 07:28:42;;;;;;;;;;;;;;;2.87;96.58;103421.97;5088315;28;19926;-72
2022/01/28 07:31:10;;;;;;;;;;;;;;;2.93;97.16;103423.84;5084856;28;19916;-72
2022/01/28 07:33:35;;;;;;;;;;;;;;;2.91;96.97;103428.16;5088588;28;19916;-73
2022/01/28 07:36:00;;;;;;;;;;;;;;;2.92;96.99;103425.59;5085871;28;19922;-73
2022/01/28 07:38:26;;;;;;;;;;;;;;;2.96;97.16;103438.66;5084064;28;19920;-72
2022/01/28 07:40:51;;;;;;;;;;;;;;;2.98;97.04;103442.19;5087261;28;19932;-72
2022/01/28 07:43:17;;;;;;;;;;;;;;;2.96;97.05;103436.94;5084695;28;20031;-74
2022/01/28 07:45:42;;;;;;;;;;;;;;;2.97;97.01;103437.84;5088770;28;20380;-74
2022/01/28 07:48:07;;;;;;;;;;;;;;;2.93;96.89;103439.44;5100774;28;19919;-73
2022/01/28 07:50:33;;;;;;;;;;;;;;;2.91;97.18;103447.19;5106154;28;19924;-74
2022/01/28 07:52:59;;;;;;;;;;;;;;;2.91;97.16;103444.59;5104898;28;19923;-74
2022/01/28 07:55:24;;;;;;;;;;;;;;;2.90;97.47;103449.75;5086417;28;19966;-74
2022/01/28 07:57:50;;;;;;;;;;;;;;;2.85;97.33;103451.34;5088280;28;19924;-72
2022/01/28 08:00:15;;;;;;;;;;;;;;;2.81;97.60;103460.75;5066943;28;19920;-73
2022/01/28 08:02:42;;;;;;;;;;;;;;;2.80;97.49;103460.72;5100270;28;20428;-75
2022/01/28 08:05:08;;;;;;;;;;;;;;;2.80;97.81;103464.19;5086451;28;19969;-77
2022/01/28 08:07:33;;;;;;;;;;;;;;;2.81;97.90;103465.09;5089291;28;19917;-76
2022/01/28 08:09:58;;;;;;;;;;;;;;;2.83;98.24;103478.97;5089402;28;19927;-76
2022/01/28 08:12:24;;;;;;;;;;;;;;;2.86;98.79;103485.16;5086831;28;19955;-78
2022/01/28 08:14:49;;;;;;;;;;;;;;;2.91;98.47;103482.69;5101407;28;19962;-78
2022/01/28 08:17:14;;;;;;;;;;;;;;;2.94;98.42;103483.66;5093897;28;19931;-78
2022/01/28 08:19:40;;;;;;;;;;;;;;;3.04;98.55;103496.88;5100580;28;19922;-74
2022/01/28 08:22:05;;;;;;;;;;;;;;;3.13;98.39;103504.94;5095100;28;19924;-74
2022/01/28 08:24:30;;;;;;;;;;;;;;;3.30;98.76;103499.31;5096723;28;19920;-73
2022/01/28 08:26:56;;;;;;;;;;;;;;;3.56;98.69;103506.06;5087993;28;19967;-74
2022/01/28 08:29:21;;;;;;;;;;;;;;;3.89;97.92;103509.50;5085422;28;19928;-74
2022/01/28 08:31:46;;;;;;;;;;;;;;;4.13;96.91;103501.38;5094903;28;20361;-74
2022/01/28 08:34:12;;;;;;;;;;;;;;;4.38;96.51;103503.66;5094771;28;19930;-75
2022/01/28 08:36:37;;;;;;;;;;;;;;;4.57;96.26;103495.44;5094696;28;19920;-74
2022/01/28 08:39:04;;;;;;;;;;;;;;;4.76;94.71;103488.00;5105885;28;19959;-74
2022/01/28 08:41:30;;;;;;;;;;;;;;;4.88;93.94;103484.75;5073817;28;19920;-75
2022/01/28 08:43:56;;;;;;;;;;;;;;;5.03;92.16;103485.06;5074606;28;19932;-74
2022/01/28 08:46:21;;;;;;;;;;;;;;;5.18;91.57;103478.38;5072786;28;19926;-75
2022/01/28 08:48:47;;;;;;;;;;;;;;;5.41;91.81;103486.63;5078847;28;19917;-74
2022/01/28 08:51:12;;;;;;;;;;;;;;;5.40;89.81;103470.06;5075162;28;19947;-75
2022/01/28 08:53:39;;;;;;;;;;;;;;;5.57;89.33;103478.19;5076069;28;19917;-75
2022/01/28 08:56:05;;;;;;;;;;;;;;;5.49;89.15;103474.59;5071463;28;19920;-74
2022/01/28 08:58:30;;;;;;;;;;;;;;;5.50;88.74;103475.47;5078617;28;19916;-74
2022/01/28 09:00:56;;;;;;;;;;;;;;;5.72;89.95;103472.38;5077714;28;20014;-74
2022/01/28 09:06:02;;;;;;;;;;;;;;;5.71;88.44;103475.84;5067241;28;19935;-74
2022/01/28 09:08:28;;;;;;;;;;;;;;;5.84;88.44;103481.25;5068782;28;19916;-75
2022/01/28 09:13:37;;;;;;;;;;;;;;;6.15;87.84;103485.22;5068450;28;19924;-75
2022/01/28 09:16:03;;;;;;;;;;;;;;;6.19;87.38;103488.75;5069225;28;19923;-74
2022/01/28 09:18:29;;;;;;;;;;;;;;;6.48;86.95;103488.28;5069483;28;20554;-74
2022/01/28 09:20:54;;;;;;;;;;;;;;;7.20;85.62;103483.03;5071484;28;19921;-74
2022/01/28 09:23:20;;;;;;;;;;;;;;;7.66;82.11;103471.22;5075473;28;19935;-74
2022/01/28 09:25:45;;;;;;;;;;;;;;;8.24;80.45;103467.25;5076537;28;20023;-74
2022/01/28 09:28:10;;;;;;;;;;;;;;;8.94;77.38;103447.47;5070282;28;19920;-75
2022/01/28 09:30:36;;;;;;;;;;;;;;;9.76;74.02;103426.50;5069596;28;19920;-78
2022/01/28 09:33:02;;;;;;;;;;;;;;;10.60;71.64;103413.13;5074861;28;19931;-75
2022/01/28 09:35:27;;;;;;;;;;;;;;;11.11;68.49;103405.78;5076770;28;19916;-76
2022/01/28 09:37:52;;;;;;;;;;;;;;;11.20;66.86;103410.09;5072707;28;19947;-73
2022/01/28 09:40:18;;;;;;;;;;;;;;;12.08;65.16;103397.84;5073983;28;20361;-76
2022/01/28 09:42:45;;;;;;;;;;;;;;;12.18;63.55;103388.94;5073391;28;19924;-73
2022/01/28 09:45:14;;;;;;;;;;;;;;;11.17;64.90;103410.13;5077286;28;20428;-74
2022/01/28 09:47:40;;;;;;;;;;;;;;;11.65;63.67;103400.94;5075979;28;20031;-74
2022/01/28 09:50:07;;;;;;;;;;;;;;;12.31;61.82;103389.66;5075592;28;20011;-73
2022/01/28 09:52:32;;;;;;;;;;;;;;;11.93;61.50;103390.97;5077130;28;19951;-75
2022/01/28 09:54:58;;;;;;;;;;;;;;;10.70;66.28;103425.34;5090720;28;19963;-73
2022/01/28 09:57:23;;;;;;;;;;;;;;;11.03;65.96;103431.28;5088413;28;19920;-77
2022/01/28 09:59:48;;;;;;;;;;;;;;;11.11;64.74;103432.09;5090833;28;19919;-77
2022/01/28 10:02:14;;;;;;;;;;;;;;;11.54;62.92;103430.88;5087112;28;20437;-76
2022/01/28 10:04:39;;;;;;;;;;;;;;;12.16;61.70;103426.75;5088537;28;19916;-76
2022/01/28 10:07:20;;;;;;;;;;;;;;;12.54;59.24;103414.84;5086427;28;19920;-76
2022/01/28 10:10:02;;;;;;;;;;;;;;;12.29;59.48;103409.03;5088248;28;19924;-77
2022/01/28 10:15:18;;;;;;;;;;;;;;;11.95;59.68;103417.28;5089784;28;19916;-78
2022/01/28 10:17:58;;;;;;;;;;;;;;;12.13;59.38;103403.06;5089063;28;19930;-78
2022/01/28 10:20:25;;;;;;;;;;;;;;;12.54;56.61;103399.03;5069083;28;19997;-77
2022/01/28 10:22:51;;;;;;;;;;;;;;;13.01;55.76;103403.63;5069988;28;20446;-77
2022/01/28 10:28:13;;;;;;;;;;;;;;;13.33;54.87;103400.47;5067985;28;19959;-78
2022/01/28 10:30:53;;;;;;;;;;;;;;;13.76;53.95;103390.91;5094709;28;19959;-76
2022/01/28 10:33:21;;;;;;;;;;;;;;;13.78;53.40;103386.47;5101296;27;20008;-77
2022/01/28 10:36:03;;;;;;;;;;;;;;;14.70;51.79;103385.44;5095858;27;20011;-73
2022/01/28 10:38:43;;;;;;;;;;;;;;;13.87;53.00;103483.22;5068157;28;19917;-77
2022/01/28 10:41:25;;;;;;;;;;;;;;;13.25;53.57;103492.09;5083206;28;19993;-76
2022/01/28 10:43:52;;;;;;;;;;;;;;;13.75;53.24;103476.34;5100375;28;19927;-78
2022/01/28 10:46:35;;;;;;;;;;;;;;;13.97;53.38;103486.53;5098969;27;19923;-76
2022/01/28 10:49:02;;;;;;;;;;;;;;;12.55;55.26;103495.72;5097244;28;20010;-75
2022/01/28 10:51:43;;;;;;;;;;;;;;;12.02;57.58;103516.47;5091608;28;19930;-76
2022/01/28 10:54:10;;;;;;;;;;;;;;;12.46;57.04;103504.59;5088384;28;19916;-76
2022/01/28 10:56:50;;;;;;;;;;;;;;;13.42;54.64;103499.78;5102301;27;19927;-76
2022/01/28 10:59:17;;;;;;;;;;;;;;;12.87;54.45;103490.91;5098553;27;20235;-75
2022/01/28 11:01:43;;;;;;;;;;;;;;;12.12;55.59;103507.63;5105192;28;19923;-77
2022/01/28 11:04:10;;;;;;;;;;;;;;;10.64;60.14;103517.38;5090414;28;19923;-77
2022/01/28 11:06:35;;;;;;;;;;;;;;;9.53;63.02;103513.16;5101125;28;19966;-78
2022/01/28 11:09:01;;;;;;;;;;;;;;;8.53;67.68;103525.09;5106096;28;19955;-75
2022/01/28 11:11:26;;;;;;;;;;;;;;;8.22;69.48;103529.22;5089869;28;19927;-72
2022/01/28 11:13:52;;;;;;;;;;;;;;;7.86;70.59;103523.75;5088578;28;20432;-72
2022/01/28 11:16:17;;;;;;;;;;;;;;;7.61;71.87;103520.03;5087147;28;19916;-77
2022/01/28 11:18:42;;;;;;;;;;;;;;;7.48;72.36;103519.94;5090884;28;19923;-77
2022/01/28 11:21:13;;;;;;;;;;;;;;;7.58;72.65;103511.31;5087590;28;19916;-76
2022/01/28 11:23:55;;;;;;;;;;;;;;;7.72;72.14;103505.28;5090729;28;20023;-77
2022/01/28 11:26:23;;;;;;;;;;;;;;;7.64;72.88;103517.44;5085243;28;22994;-76
2022/01/28 11:31:46;;;;;;;;;;;;;;;7.54;73.13;103498.19;5106591;28;19923;-76
2022/01/28 11:34:27;;;;;;;;;;;;;;;7.69;73.42;103506.16;5105239;27;20423;-76
2022/01/28 11:36:53;;;;;;;;;;;;;;;7.71;73.10;103491.34;5087522;28;19965;-77
2022/01/28 11:39:19;;;;;;;;;;;;;;;7.80;72.48;103484.41;5085107;28;19964;-76
2022/01/28 11:42:00;;;;;;;;;;;;;;;7.76;72.73;103478.28;5068480;28;20011;-76
2022/01/28 11:44:40;;;;;;;;;;;;;;;7.67;73.67;103473.84;5067892;28;20570;-75
2022/01/28 11:47:08;;;;;;;;;;;;;;;7.77;72.43;103468.72;5090893;28;19923;-76
2022/01/28 11:49:50;;;;;;;;;;;;;;;7.88;72.08;103467.91;5086733;28;19920;-76
2022/01/28 11:52:31;;;;;;;;;;;;;;;7.94;72.16;103456.59;5084871;28;19958;-76
2022/01/28 11:55:16;;;;;;;;;;;;;;;7.74;72.49;103441.66;5085848;28;19920;-76
2022/01/28 11:57:57;;;;;;;;;;;;;;;7.67;73.03;103449.44;5087897;27;19928;-76
2022/01/28 12:00:39;;;;;;;;;;;;;;;7.68;72.26;103445.97;5095146;28;19920;-75
2022/01/28 12:03:19;;;;;;;;;;;;;;;7.40;73.94;103444.00;5097141;28;20012;-75
2022/01/28 12:06:00;;;;;;;;;;;;;;;7.22;74.48;103444.69;5089495;28;20035;-77
2022/01/28 12:08:26;;;;;;;;;;;;;;;7.25;74.48;103444.75;5095753;28;20689;-76
2022/01/28 12:10:53;;;;;;;;;;;;;;;7.28;75.74;103452.59;5100391;28;20348;-77
2022/01/28 12:13:20;;;;;;;;;;;;;;;7.33;74.06;103431.72;5087502;28;19920;-77
2022/01/28 12:18:57;;;;;;;;;;;;;;;7.00;75.25;103442.72;5080009;28;19928;-77
2022/01/28 12:21:25;;;;;;;;;;;;;;;6.92;75.55;103440.03;5087726;28;19966;-75
2022/01/28 12:23:52;;;;;;;;;;;;;;;6.99;76.49;103440.97;5086102;28;20625;-75
2022/01/28 12:26:19;;;;;;;;;;;;;;;7.07;75.42;103428.84;5087202;28;19928;-76
2022/01/28 12:28:45;;;;;;;;;;;;;;;7.26;75.32;103428.19;5085187;28;19920;-76
2022/01/28 12:33:54;;;;;;;;;;;;;;;7.39;74.79;103405.63;5086395;28;20327;-76
2022/01/28 12:36:21;;;;;;;;;;;;;;;7.43;75.31;103412.66;5084521;28;19920;-75
2022/01/28 12:41:40;;;;;;;;;;;;;;;7.60;74.25;103408.41;5070011;28;19920;-76
2022/01/28 12:44:05;;;;;;;;;;;;;;;7.63;74.35;103404.06;5086972;28;20012;-76
2022/01/28 12:46:31;;;;;;;;;;;;;;;7.68;74.32;103404.09;5087977;28;20149;-75
2022/01/28 12:48:59;;;;;;;;;;;;;;;7.63;73.29;103395.31;5090038;28;19924;-76
2022/01/28 12:51:24;;;;;;;;;;;;;;;7.54;73.99;103397.00;5093274;28;19919;-75
2022/01/28 12:53:54;;;;;;;;;;;;;;;7.41;74.06;103389.94;5099749;28;20391;-77
2022/01/28 12:56:34;;;;;;;;;;;;;;;7.36;75.23;103392.50;5098097;28;20276;-77
2022/01/28 12:59:00;;;;;;;;;;;;;;;7.39;75.17;103389.03;5086917;28;20006;-75
2022/01/28 13:01:27;;;;;;;;;;;;;;;7.48;75.13;103388.25;5092371;28;20565;-76
2022/01/28 13:09:31;;;;;;;;;;;;;;;7.38;73.97;103377.72;5095014;28;19920;-77
2022/01/28 13:11:57;;;;;;;;;;;;;;;7.34;74.95;103396.00;5066344;28;19946;-76
2022/01/28 13:14:39;;;;;;;;;;;;;;;7.43;75.57;103390.81;5066441;28;20373;-77
2022/01/28 13:17:06;;;;;;;;;;;;;;;7.57;74.73;103383.06;5065790;28;19943;-76
2022/01/28 13:19:31;;;;;;;;;;;;;;;7.72;74.36;103383.19;5069042;28;19921;-76
2022/01/28 13:21:57;;;;;;;;;;;;;;;7.84;74.41;103373.66;5065991;28;19925;-77
2022/01/28 13:24:23;;;;;;;;;;;;;;;7.87;73.90;103378.91;5077546;28;19923;-79
2022/01/28 13:27:04;;;;;;;;;;;;;;;7.72;74.32;103379.69;5087128;28;19923;-77
2022/01/28 13:29:46;;;;;;;;;;;;;;;7.71;75.21;103375.34;5087390;28;19920;-77
2022/01/28 13:32:11;;;;;;;;;;;;;;;7.73;76.24;103390.19;5086523;28;19917;-75
2022/01/28 13:34:52;;;;;;;;;;;;;;;7.69;76.29;103383.16;5088835;28;20427;-77
2022/01/28 13:37:34;;;;;;;;;;;;;;;7.56;76.84;103384.81;5071852;28;19966;-77
2022/01/28 13:40:00;;;;;;;;;;;;;;;7.54;77.52;103373.47;5070294;28;20344;-76
2022/01/28 13:42:25;;;;;;;;;;;;;;;7.67;77.31;103379.66;5086241;28;19944;-77
2022/01/28 13:44:51;;;;;;;;;;;;;;;7.57;77.57;103376.13;5088123;28;20341;-75
2022/01/28 13:47:17;;;;;;;;;;;;;;;7.53;78.53;103376.09;5088825;28;19931;-78
2022/01/28 13:49:43;;;;;;;;;;;;;;;7.54;79.96;103383.06;5087471;28;19916;-77
2022/01/28 13:52:40;;;;;;;;;;;;;;;7.45;80.88;103383.88;5086084;28;20014;-76
2022/01/28 13:55:25;;;;;;;;;;;;;;;7.43;81.77;103382.97;5082976;28;19920;-75
2022/01/28 13:57:59;;;;;;;;;;;;;;;7.43;82.22;103369.91;5077580;28;19920;-74
2022/01/28 14:00:34;;;;;;;;;;;;;;;7.55;82.42;103354.28;5087546;28;20722;-76
2022/01/28 14:02:59;;;;;;;;;;;;;;;7.49;81.46;103359.50;5098714;28;19930;-75
2022/01/28 14:05:24;;;;;;;;;;;;;;;7.66;81.25;103358.72;5087482;28;20411;-76
2022/01/28 14:08:05;;;;;;;;;;;;;;;7.64;82.01;103365.69;5090288;28;19974;-75
2022/01/28 14:10:36;;;;;;;;;;;;;;;7.75;81.44;103361.38;5086878;28;19946;-75
2022/01/28 14:13:17;;;;;;;;;;;;;;;7.72;80.35;103356.13;5090120;28;20337;-75
2022/01/28 14:15:53;;;;;;;;;;;;;;;7.69;79.73;103346.53;5088841;28;19916;-75
2022/01/28 14:18:18;;;;;;;;;;;;;;;7.61;78.45;103344.75;5089280;28;19928;-75
2022/01/28 14:20:43;;;;;;;;;;;;;;;7.54;78.33;103346.44;5089768;28;19916;-76
2022/01/28 14:23:08;;;;;;;;;;;;;;;7.51;77.52;103325.50;5089770;28;19920;-75
2022/01/28 14:25:34;;;;;;;;;;;;;;;7.44;77.68;103314.13;5089143;28;20530;-75
2022/01/28 14:28:12;;;;;;;;;;;;;;;7.40;77.67;103317.56;5091407;28;19920;-76
2022/01/28 14:30:40;;;;;;;;;;;;;;;7.35;78.46;103317.53;5086743;28;19930;-75
2022/01/28 14:33:06;;;;;;;;;;;;;;;7.27;78.56;103307.03;5091149;27;19920;-75
2022/01/28 14:35:32;;;;;;;;;;;;;;;7.22;78.48;103308.75;5089658;28;20631;-76
2022/01/28 14:37:57;;;;;;;;;;;;;;;7.13;78.38;103308.66;5090932;28;19923;-76
2022/01/28 14:40:22;;;;;;;;;;;;;;;7.10;78.21;103301.69;5085571;28;20288;-75
2022/01/28 14:42:48;;;;;;;;;;;;;;;7.16;77.46;103297.34;5088477;28;19928;-75
2022/01/28 14:45:13;;;;;;;;;;;;;;;7.11;76.18;103284.25;5087592;28;19951;-77
2022/01/28 14:47:38;;;;;;;;;;;;;;;7.11;76.70;103289.47;5089439;28;19920;-75
2022/01/28 14:50:05;;;;;;;;;;;;;;;7.08;76.55;103300.78;5089904;28;20302;-75
2022/01/28 14:52:31;;;;;;;;;;;;;;;7.06;76.49;103297.28;5089349;28;19927;-76
2022/01/28 14:54:56;;;;;;;;;;;;;;;7.08;76.14;103297.28;5090272;28;19920;-74
2022/01/28 14:57:23;;;;;;;;;;;;;;;7.15;76.05;103290.38;5088021;28;20439;-75
2022/01/28 14:59:48;;;;;;;;;;;;;;;7.10;75.69;103288.63;5089125;28;19923;-76
2022/01/28 15:02:15;;;;;;;;;;;;;;;7.09;76.98;103291.19;5088775;28;19924;-75
2022/01/28 15:04:41;;;;;;;;;;;;;;;7.09;78.17;103297.31;5096132;27;20020;-76